Terminal Aerodrome Forecast
Issued by NWS Brownsville, TX

Home | Current Version | Previous Version | Text Only | Print | Product List | Glossary On
Versions: 1 2 3 4 5 6 7 8 9 10 11 12 13 14 15 16 17 18 19 20 21 22
887
FTUS44 KBRO 212320
TAFMFE
TAF
KMFE 212320Z 2200/2224 14012G23KT P6SM SCT050 BKN250
     FM220300 15007KT P6SM BKN015
     FM220600 15004KT 4SM BR OVC007
     FM220900 VRB03KT 2SM BR OVC004
     FM221500 33010KT 4SM BR OVC015
     FM221800 36015KT P6SM SCT015 BKN050=

USA.gov is the U.S. government's official web portal to all federal, state and local government web resources and services.